sensor_id;sensor_type;location;lat;lon;timestamp;pressure;altitude;pressure_sealevel;temperature;humidity
21902;BME280;11115;46.038;14.612;2023-04-04T00:00:08;98548.31;;;2.94;66.62
21902;BME280;11115;46.038;14.612;2023-04-04T00:02:44;98539.91;;;3.01;64.44
21902;BME280;11115;46.038;14.612;2023-04-04T00:05:16;98536.91;;;3.02;63.13
21902;BME280;11115;46.038;14.612;2023-04-04T00:07:46;98537.44;;;2.99;63.67
21902;BME280;11115;46.038;14.612;2023-04-04T00:10:18;98542.94;;;3.04;63.05
21902;BME280;11115;46.038;14.612;2023-04-04T00:12:49;98531.19;;;3.04;62.36
21902;BME280;11115;46.038;14.612;2023-04-04T00:15:25;98539.94;;;3.06;63.03
21902;BME280;11115;46.038;14.612;2023-04-04T00:17:59;98533.00;;;2.93;67.11
21902;BME280;11115;46.038;14.612;2023-04-04T00:20:30;98522.97;;;3.04;62.18
21902;BME280;11115;46.038;14.612;2023-04-04T00:23:06;98525.97;;;3.02;65.19
21902;BME280;11115;46.038;14.612;2023-04-04T00:25:39;98524.81;;;2.93;64.43
21902;BME280;11115;46.038;14.612;2023-04-04T00:28:14;98525.09;;;2.97;62.05
21902;BME280;11115;46.038;14.612;2023-04-04T00:30:45;98522.63;;;2.95;63.53
21902;BME280;11115;46.038;14.612;2023-04-04T00:33:18;98522.00;;;2.88;63.08
21902;BME280;11115;46.038;14.612;2023-04-04T00:35:51;98534.09;;;2.92;63.49
21902;BME280;11115;46.038;14.612;2023-04-04T00:38:25;98525.97;;;3.02;62.84
21902;BME280;11115;46.038;14.612;2023-04-04T00:40:59;98521.59;;;3.01;62.66
21902;BME280;11115;46.038;14.612;2023-04-04T00:43:33;98525.44;;;2.73;62.21
21902;BME280;11115;46.038;14.612;2023-04-04T00:46:11;98538.66;;;2.87;62.85
21902;BME280;11115;46.038;14.612;2023-04-04T00:48:42;98521.13;;;2.83;63.12
21902;BME280;11115;46.038;14.612;2023-04-04T00:51:11;98521.41;;;2.81;63.30
21902;BME280;11115;46.038;14.612;2023-04-04T00:53:46;98526.59;;;2.83;65.22
21902;BME280;11115;46.038;14.612;2023-04-04T00:56:16;98525.56;;;2.89;63.65
21902;BME280;11115;46.038;14.612;2023-04-04T00:58:56;98532.41;;;2.64;65.73
21902;BME280;11115;46.038;14.612;2023-04-04T01:01:32;98521.88;;;2.73;63.05
21902;BME280;11115;46.038;14.612;2023-04-04T01:04:06;98514.53;;;2.79;62.49
21902;BME280;11115;46.038;14.612;2023-04-04T01:06:37;98510.94;;;2.73;63.33
21902;BME280;11115;46.038;14.612;2023-04-04T01:09:22;98519.28;;;2.61;65.33
21902;BME280;11115;46.038;14.612;2023-04-04T01:11:55;98516.84;;;2.65;65.78
21902;BME280;11115;46.038;14.612;2023-04-04T01:14:27;98514.13;;;2.65;64.84
21902;BME280;11115;46.038;14.612;2023-04-04T01:17:01;98523.09;;;2.60;63.06
21902;BME280;11115;46.038;14.612;2023-04-04T01:20:04;98510.31;;;2.66;63.80
21902;BME280;11115;46.038;14.612;2023-04-04T01:22:48;98510.38;;;2.49;67.90
21902;BME280;11115;46.038;14.612;2023-04-04T01:25:28;98513.81;;;2.61;64.95
21902;BME280;11115;46.038;14.612;2023-04-04T01:28:09;98508.59;;;2.60;64.88
21902;BME280;11115;46.038;14.612;2023-04-04T01:30:43;98509.56;;;2.49;64.39
21902;BME280;11115;46.038;14.612;2023-04-04T01:33:41;98512.84;;;2.72;64.24
21902;BME280;11115;46.038;14.612;2023-04-04T01:39:26;98514.47;;;2.25;71.74
21902;BME280;11115;46.038;14.612;2023-04-04T01:42:02;98516.56;;;2.39;69.46
21902;BME280;11115;46.038;14.612;2023-04-04T01:44:32;98520.69;;;2.42;67.48
21902;BME280;11115;46.038;14.612;2023-04-04T01:47:07;98511.63;;;2.36;67.70
21902;BME280;11115;46.038;14.612;2023-04-04T01:49:49;98490.75;;;2.25;67.68
21902;BME280;11115;46.038;14.612;2023-04-04T01:52:24;98506.59;;;2.28;67.07
21902;BME280;11115;46.038;14.612;2023-04-04T01:54:54;98507.13;;;2.25;68.71
21902;BME280;11115;46.038;14.612;2023-04-04T01:57:25;98506.16;;;2.36;68.65
21902;BME280;11115;46.038;14.612;2023-04-04T02:00:12;98520.06;;;2.35;64.41
21902;BME280;11115;46.038;14.612;2023-04-04T02:02:50;98441.19;;;1.90;68.00
21902;BME280;11115;46.038;14.612;2023-04-04T02:05:21;98515.00;;;2.22;69.64
21902;BME280;11115;46.038;14.612;2023-04-04T02:07:51;98515.03;;;2.05;68.95
21902;BME280;11115;46.038;14.612;2023-04-04T02:10:35;98486.56;;;2.18;67.53
21902;BME280;11115;46.038;14.612;2023-04-04T02:13:16;98502.34;;;2.37;66.59
21902;BME280;11115;46.038;14.612;2023-04-04T02:15:50;98496.41;;;2.19;67.97
21902;BME280;11115;46.038;14.612;2023-04-04T02:18:21;98482.81;;;2.02;68.89
21902;BME280;11115;46.038;14.612;2023-04-04T02:20:56;98491.75;;;2.19;67.24
21902;BME280;11115;46.038;14.612;2023-04-04T02:23:28;98499.19;;;2.24;64.53
21902;BME280;11115;46.038;14.612;2023-04-04T02:26:16;98501.91;;;2.24;64.22
21902;BME280;11115;46.038;14.612;2023-04-04T02:28:46;98483.44;;;2.09;67.22
21902;BME280;11115;46.038;14.612;2023-04-04T02:31:18;98489.59;;;2.21;63.64
21902;BME280;11115;46.038;14.612;2023-04-04T02:33:50;98494.88;;;2.06;65.00
21902;BME280;11115;46.038;14.612;2023-04-04T02:36:22;98496.41;;;2.19;63.68
21902;BME280;11115;46.038;14.612;2023-04-04T02:38:53;98494.44;;;2.14;65.68
21902;BME280;11115;46.038;14.612;2023-04-04T02:41:26;98488.31;;;1.85;68.67
21902;BME280;11115;46.038;14.612;2023-04-04T02:44:02;98490.94;;;1.97;69.41
21902;BME280;11115;46.038;14.612;2023-04-04T02:46:36;98494.25;;;1.99;68.48
21902;BME280;11115;46.038;14.612;2023-04-04T02:49:09;98491.25;;;2.00;68.16
21902;BME280;11115;46.038;14.612;2023-04-04T02:51:47;98477.97;;;1.87;69.05
21902;BME280;11115;46.038;14.612;2023-04-04T02:54:18;98479.94;;;1.92;66.92
21902;BME280;11115;46.038;14.612;2023-04-04T02:56:58;98492.53;;;2.15;64.76
21902;BME280;11115;46.038;14.612;2023-04-04T02:59:33;98474.81;;;1.95;64.19
21902;BME280;11115;46.038;14.612;2023-04-04T03:02:08;98482.31;;;2.05;64.68
21902;BME280;11115;46.038;14.612;2023-04-04T03:04:46;98493.66;;;1.97;66.01
21902;BME280;11115;46.038;14.612;2023-04-04T03:07:17;98490.75;;;2.03;64.28
21902;BME280;11115;46.038;14.612;2023-04-04T03:09:53;98480.53;;;1.94;65.53
21902;BME280;11115;46.038;14.612;2023-04-04T03:12:25;98460.97;;;1.80;66.06
21902;BME280;11115;46.038;14.612;2023-04-04T03:14:53;98482.19;;;1.95;64.53
21902;BME280;11115;46.038;14.612;2023-04-04T03:17:27;98468.50;;;1.73;66.01
21902;BME280;11115;46.038;14.612;2023-04-04T03:19:59;98479.66;;;1.71;68.46
21902;BME280;11115;46.038;14.612;2023-04-04T03:22:31;98472.66;;;1.75;65.18
21902;BME280;11115;46.038;14.612;2023-04-04T03:25:08;98472.41;;;1.99;63.55
21902;BME280;11115;46.038;14.612;2023-04-04T03:27:52;98442.56;;;1.70;64.39
21902;BME280;11115;46.038;14.612;2023-04-04T03:30:26;98477.34;;;1.80;65.52
21902;BME280;11115;46.038;14.612;2023-04-04T03:33:09;98472.22;;;1.83;64.69
21902;BME280;11115;46.038;14.612;2023-04-04T03:35:43;98479.25;;;2.01;61.44
21902;BME280;11115;46.038;14.612;2023-04-04T03:38:27;98473.66;;;1.91;65.46
21902;BME280;11115;46.038;14.612;2023-04-04T03:41:08;98444.84;;;1.57;65.78
21902;BME280;11115;46.038;14.612;2023-04-04T03:43:36;98456.50;;;1.52;66.33
21902;BME280;11115;46.038;14.612;2023-04-04T03:46:20;98479.66;;;1.71;65.83
21902;BME280;11115;46.038;14.612;2023-04-04T03:48:58;98489.03;;;1.75;67.53
21902;BME280;11115;46.038;14.612;2023-04-04T03:51:32;98475.97;;;1.77;64.41
21902;BME280;11115;46.038;14.612;2023-04-04T03:54:05;98469.28;;;1.68;63.16
21902;BME280;11115;46.038;14.612;2023-04-04T03:56:38;98477.34;;;1.80;62.88
21902;BME280;11115;46.038;14.612;2023-04-04T03:59:15;98484.47;;;1.81;62.32
21902;BME280;11115;46.038;14.612;2023-04-04T04:01:54;98476.84;;;1.83;63.65
21902;BME280;11115;46.038;14.612;2023-04-04T04:04:32;98485.84;;;1.83;61.81
21902;BME280;11115;46.038;14.612;2023-04-04T04:07:02;98484.97;;;1.78;64.13
21902;BME280;11115;46.038;14.612;2023-04-04T04:09:35;98487.03;;;1.71;64.20
21902;BME280;11115;46.038;14.612;2023-04-04T04:12:09;98487.31;;;1.52;65.95
21902;BME280;11115;46.038;14.612;2023-04-04T04:14:41;98484.88;;;1.73;63.46
21902;BME280;11115;46.038;14.612;2023-04-04T04:17:11;98483.97;;;1.67;64.30
21902;BME280;11115;46.038;14.612;2023-04-04T04:19:53;98489.44;;;1.67;64.32
21902;BME280;11115;46.038;14.612;2023-04-04T04:22:25;98460.00;;;1.69;63.04
21902;BME280;11115;46.038;14.612;2023-04-04T04:24:56;98481.75;;;1.64;64.74
21902;BME280;11115;46.038;14.612;2023-04-04T04:27:40;98481.97;;;1.58;63.36
21902;BME280;11115;46.038;14.612;2023-04-04T04:30:15;98474.16;;;1.66;62.83
21902;BME280;11115;46.038;14.612;2023-04-04T04:32:44;98498.28;;;1.74;63.66
21902;BME280;11115;46.038;14.612;2023-04-04T04:35:29;98509.66;;;1.71;65.47
21902;BME280;11115;46.038;14.612;2023-04-04T04:38:02;98494.06;;;1.67;64.87
21902;BME280;11115;46.038;14.612;2023-04-04T04:40:34;98480.69;;;1.65;64.75
21902;BME280;11115;46.038;14.612;2023-04-04T04:43:15;98499.72;;;1.60;67.04
21902;BME280;11115;46.038;14.612;2023-04-04T04:45:48;98503.84;;;1.46;67.58
21902;BME280;11115;46.038;14.612;2023-04-04T04:48:20;98421.91;;;0.80;70.08
21902;BME280;11115;46.038;14.612;2023-04-04T04:50:58;98514.03;;;1.17;73.50
21902;BME280;11115;46.038;14.612;2023-04-04T04:53:50;98480.00;;;1.19;70.84
21902;BME280;11115;46.038;14.612;2023-04-04T04:56:24;98504.75;;;1.51;71.38
21902;BME280;11115;46.038;14.612;2023-04-04T04:59:09;98500.47;;;1.39;69.49
21902;BME280;11115;46.038;14.612;2023-04-04T05:01:48;98514.00;;;1.34;69.14
21902;BME280;11115;46.038;14.612;2023-04-04T05:04:24;98507.00;;;1.38;69.62
21902;BME280;11115;46.038;14.612;2023-04-04T05:07:02;98521.84;;;1.47;69.92
21902;BME280;11115;46.038;14.612;2023-04-04T05:09:35;98528.13;;;1.47;71.28
21902;BME280;11115;46.038;14.612;2023-04-04T05:12:07;98480.16;;;1.13;72.88
21902;BME280;11115;46.038;14.612;2023-04-04T05:14:48;98527.06;;;1.32;72.06
21902;BME280;11115;46.038;14.612;2023-04-04T05:17:22;98525.84;;;1.56;69.14
21902;BME280;11115;46.038;14.612;2023-04-04T05:19:59;98517.81;;;1.49;67.53
21902;BME280;11115;46.038;14.612;2023-04-04T05:22:46;98514.50;;;1.31;70.44
21902;BME280;11115;46.038;14.612;2023-04-04T05:25:30;98531.75;;;1.53;66.66
21902;BME280;11115;46.038;14.612;2023-04-04T05:28:03;98537.72;;;1.50;69.37
21902;BME280;11115;46.038;14.612;2023-04-04T05:30:39;98535.66;;;1.57;69.01
21902;BME280;11115;46.038;14.612;2023-04-04T05:33:19;98545.91;;;1.50;69.11
21902;BME280;11115;46.038;14.612;2023-04-04T05:36:16;98538.78;;;1.49;72.95
21902;BME280;11115;46.038;14.612;2023-04-04T05:38:53;98550.13;;;1.58;76.84
21902;BME280;11115;46.038;14.612;2023-04-04T05:41:41;98550.44;;;1.78;71.05
21902;BME280;11115;46.038;14.612;2023-04-04T05:44:16;98545.19;;;1.93;79.89
21902;BME280;11115;46.038;14.612;2023-04-04T05:46:50;98549.72;;;1.88;72.13
21902;BME280;11115;46.038;14.612;2023-04-04T05:49:21;98549.91;;;1.81;70.78
21902;BME280;11115;46.038;14.612;2023-04-04T05:51:57;98555.75;;;1.90;70.53
21902;BME280;11115;46.038;14.612;2023-04-04T05:54:39;98554.91;;;2.06;70.50
21902;BME280;11115;46.038;14.612;2023-04-04T05:57:21;98564.69;;;2.24;68.76
21902;BME280;11115;46.038;14.612;2023-04-04T05:59:57;98538.69;;;2.16;67.88
21902;BME280;11115;46.038;14.612;2023-04-04T06:02:50;98559.28;;;2.29;72.59
21902;BME280;11115;46.038;14.612;2023-04-04T06:05:29;98561.66;;;2.42;69.04
21902;BME280;11115;46.038;14.612;2023-04-04T06:08:03;98556.50;;;2.46;73.17
21902;BME280;11115;46.038;14.612;2023-04-04T06:10:36;98553.81;;;2.72;68.64
21902;BME280;11115;46.038;14.612;2023-04-04T06:13:09;98557.94;;;2.75;70.82
21902;BME280;11115;46.038;14.612;2023-04-04T06:15:54;98561.47;;;2.70;67.70
21902;BME280;11115;46.038;14.612;2023-04-04T06:18:27;98542.47;;;2.59;71.20
21902;BME280;11115;46.038;14.612;2023-04-04T06:20:56;98565.38;;;2.80;70.50
21902;BME280;11115;46.038;14.612;2023-04-04T06:23:30;98551.75;;;2.85;67.62
21902;BME280;11115;46.038;14.612;2023-04-04T06:26:05;98557.53;;;2.88;65.80
21902;BME280;11115;46.038;14.612;2023-04-04T06:28:51;98499.59;;;2.59;66.90
21902;BME280;11115;46.038;14.612;2023-04-04T06:31:32;98555.66;;;3.21;67.83
21902;BME280;11115;46.038;14.612;2023-04-04T06:34:11;98523.47;;;2.96;63.26
21902;BME280;11115;46.038;14.612;2023-04-04T06:36:58;98555.66;;;3.21;58.82
21902;BME280;11115;46.038;14.612;2023-04-04T06:39:41;98550.97;;;3.16;62.18
21902;BME280;11115;46.038;14.612;2023-04-04T06:42:30;98542.69;;;3.38;63.40
21902;BME280;11115;46.038;14.612;2023-04-04T06:45:05;98558.59;;;3.46;63.66
21902;BME280;11115;46.038;14.612;2023-04-04T06:47:39;98539.94;;;3.33;61.82
21902;BME280;11115;46.038;14.612;2023-04-04T06:50:23;98541.69;;;3.49;61.87
21902;BME280;11115;46.038;14.612;2023-04-04T06:52:55;98538.19;;;3.22;56.91
21902;BME280;11115;46.038;14.612;2023-04-04T06:55:32;98549.72;;;3.61;62.27
21902;BME280;11115;46.038;14.612;2023-04-04T06:58:10;98549.72;;;3.61;57.14
21902;BME280;11115;46.038;14.612;2023-04-04T07:00:43;98548.19;;;3.75;58.34
21902;BME280;11115;46.038;14.612;2023-04-04T07:03:15;98530.78;;;3.91;57.59
21902;BME280;11115;46.038;14.612;2023-04-04T07:06:07;98538.56;;;3.68;56.42
21902;BME280;11115;46.038;14.612;2023-04-04T07:08:42;98550.47;;;3.88;55.36
21902;BME280;11115;46.038;14.612;2023-04-04T07:11:11;98545.31;;;4.02;57.82
21902;BME280;11115;46.038;14.612;2023-04-04T07:13:41;98552.41;;;3.93;56.67
21902;BME280;11115;46.038;14.612;2023-04-04T07:16:13;98539.19;;;3.85;56.45
21902;BME280;11115;46.038;14.612;2023-04-04T07:18:44;98529.31;;;3.79;52.76
21902;BME280;11115;46.038;14.612;2023-04-04T07:21:16;98514.47;;;4.17;56.69
21902;BME280;11115;46.038;14.612;2023-04-04T07:23:46;98535.38;;;4.38;58.72
21902;BME280;11115;46.038;14.612;2023-04-04T07:26:23;98538.47;;;4.52;57.95
21902;BME280;11115;46.038;14.612;2023-04-04T07:28:57;98519.47;;;4.25;54.11
21902;BME280;11115;46.038;14.612;2023-04-04T07:31:27;98534.34;;;4.49;53.56
21902;BME280;11115;46.038;14.612;2023-04-04T07:34:01;98525.66;;;4.78;55.62
21902;BME280;11115;46.038;14.612;2023-04-04T07:36:47;98529.16;;;4.58;55.70
21902;BME280;11115;46.038;14.612;2023-04-04T07:39:20;98523.41;;;4.60;53.90
21902;BME280;11115;46.038;14.612;2023-04-04T07:41:50;98527.50;;;4.57;55.03
21902;BME280;11115;46.038;14.612;2023-04-04T07:44:22;98544.91;;;5.03;57.83
21902;BME280;11115;46.038;14.612;2023-04-04T07:46:56;98540.81;;;5.26;57.71
21902;BME280;11115;46.038;14.612;2023-04-04T07:49:37;98529.47;;;4.77;51.79
21902;BME280;11115;46.038;14.612;2023-04-04T07:52:10;98539.41;;;4.98;55.35
21902;BME280;11115;46.038;14.612;2023-04-04T07:54:45;98516.66;;;5.13;57.19
21902;BME280;11115;46.038;14.612;2023-04-04T07:57:15;98547.38;;;5.15;57.07
21902;BME280;11115;46.038;14.612;2023-04-04T07:59:44;98539.69;;;5.17;54.12
21902;BME280;11115;46.038;14.612;2023-04-04T08:02:16;98544.13;;;5.23;53.78
21902;BME280;11115;46.038;14.612;2023-04-04T08:05:00;98522.13;;;4.82;51.45
21902;BME280;11115;46.038;14.612;2023-04-04T08:07:38;98532.31;;;5.02;50.65
21902;BME280;11115;46.038;14.612;2023-04-04T08:10:10;98534.25;;;5.32;53.35
21902;BME280;11115;46.038;14.612;2023-04-04T08:12:47;98529.03;;;5.36;54.13
21902;BME280;11115;46.038;14.612;2023-04-04T08:15:22;98545.19;;;5.73;57.82
21902;BME280;11115;46.038;14.612;2023-04-04T08:18:00;98528.47;;;5.49;50.93
21902;BME280;11115;46.038;14.612;2023-04-04T08:20:37;98529.84;;;5.46;51.00
21902;BME280;11115;46.038;14.612;2023-04-04T08:23:08;98515.84;;;5.02;48.56
21902;BME280;11115;46.038;14.612;2023-04-04T08:25:42;98516.13;;;5.06;49.15
21902;BME280;11115;46.038;14.612;2023-04-04T08:28:12;98513.66;;;5.35;50.52
21902;BME280;11115;46.038;14.612;2023-04-04T08:30:43;98516.41;;;5.14;48.29
21902;BME280;11115;46.038;14.612;2023-04-04T08:33:12;98517.78;;;5.32;48.04
21902;BME280;11115;46.038;14.612;2023-04-04T08:36:00;98515.00;;;5.93;55.15
21902;BME280;11115;46.038;14.612;2023-04-04T08:38:35;98532.03;;;6.00;54.96
21902;BME280;11115;46.038;14.612;2023-04-04T08:41:06;98512.53;;;5.82;48.12
21902;BME280;11115;46.038;14.612;2023-04-04T08:43:37;98504.56;;;5.95;50.38
21902;BME280;11115;46.038;14.612;2023-04-04T08:46:23;98488.88;;;6.06;52.17
21902;BME280;11115;46.038;14.612;2023-04-04T08:48:56;98484.72;;;6.24;55.04
21902;BME280;11115;46.038;14.612;2023-04-04T08:51:31;98493.66;;;6.50;52.83
21902;BME280;11115;46.038;14.612;2023-04-04T08:54:04;98487.97;;;6.31;48.48
21902;BME280;11115;46.038;14.612;2023-04-04T08:56:37;98499.97;;;6.50;52.39
21902;BME280;11115;46.038;14.612;2023-04-04T08:59:07;98481.41;;;6.81;54.31
21902;BME280;11115;46.038;14.612;2023-04-04T09:02:03;98486.84;;;6.86;53.05
21902;BME280;11115;46.038;14.612;2023-04-04T09:04:34;98484.63;;;6.44;52.62
21902;BME280;11115;46.038;14.612;2023-04-04T09:07:49;98497.44;;;6.64;51.49
21902;BME280;11115;46.038;14.612;2023-04-04T09:10:22;98478.63;;;6.37;43.67
21902;BME280;11115;46.038;14.612;2023-04-04T09:12:59;98480.28;;;6.82;51.12
21902;BME280;11115;46.038;14.612;2023-04-04T09:15:45;98479.81;;;6.75;46.29
21902;BME280;11115;46.038;14.612;2023-04-04T09:18:24;98478.66;;;7.20;52.21
21902;BME280;11115;46.038;14.612;2023-04-04T09:20:55;98468.63;;;7.35;51.66
21902;BME280;11115;46.038;14.612;2023-04-04T09:23:25;98472.91;;;7.17;48.90
21902;BME280;11115;46.038;14.612;2023-04-04T09:25:58;98446.69;;;6.90;48.73
21902;BME280;11115;46.038;14.612;2023-04-04T09:28:30;98458.91;;;7.42;52.49
21902;BME280;11115;46.038;14.612;2023-04-04T09:31:03;98460.03;;;7.70;51.36
21902;BME280;11115;46.038;14.612;2023-04-04T09:33:37;98437.91;;;7.51;48.19
21902;BME280;11115;46.038;14.612;2023-04-04T09:36:19;98428.81;;;7.56;49.09
21902;BME280;11115;46.038;14.612;2023-04-04T09:38:52;98455.59;;;7.74;46.06
21902;BME280;11115;46.038;14.612;2023-04-04T09:41:32;98457.41;;;8.08;47.38
21902;BME280;11115;46.038;14.612;2023-04-04T09:44:04;98448.22;;;8.17;50.11
21902;BME280;11115;46.038;14.612;2023-04-04T09:46:44;98436.69;;;7.91;46.62
21902;BME280;11115;46.038;14.612;2023-04-04T09:49:20;98446.81;;;7.96;47.25
21902;BME280;11115;46.038;14.612;2023-04-04T09:51:54;98432.22;;;8.19;49.69
21902;BME280;11115;46.038;14.612;2023-04-04T09:54:24;98423.81;;;8.06;44.17
21902;BME280;11115;46.038;14.612;2023-04-04T09:57:07;98425.19;;;7.84;42.28
21902;BME280;11115;46.038;14.612;2023-04-04T09:59:45;98424.06;;;7.85;42.42
21902;BME280;11115;46.038;14.612;2023-04-04T10:02:19;98432.63;;;8.32;46.49
21902;BME280;11115;46.038;14.612;2023-04-04T10:04:59;98427.00;;;8.18;42.54
21902;BME280;11115;46.038;14.612;2023-04-04T10:07:31;98412.34;;;7.99;39.49
21902;BME280;11115;46.038;14.612;2023-04-04T10:10:12;98374.53;;;8.04;42.31
21902;BME280;11115;46.038;14.612;2023-04-04T10:12:44;98423.19;;;8.94;45.42
21902;BME280;11115;46.038;14.612;2023-04-04T10:15:22;98407.56;;;8.71;41.53
21902;BME280;11115;46.038;14.612;2023-04-04T10:17:54;98394.00;;;8.74;42.99
21902;BME280;11115;46.038;14.612;2023-04-04T10:20:33;98410.66;;;9.02;44.44
21902;BME280;11115;46.038;14.612;2023-04-04T10:23:11;98409.56;;;8.84;44.34
21902;BME280;11115;46.038;14.612;2023-04-04T10:25:43;98411.50;;;8.83;44.90
21902;BME280;11115;46.038;14.612;2023-04-04T10:28:16;98399.81;;;9.05;41.27
21902;BME280;11115;46.038;14.612;2023-04-04T10:31:22;98404.41;;;8.96;41.22
21902;BME280;11115;46.038;14.612;2023-04-04T10:34:11;98411.63;;;9.11;42.14
21902;BME280;11115;46.038;14.612;2023-04-04T10:37:07;98390.94;;;9.41;43.40
21902;BME280;11115;46.038;14.612;2023-04-04T10:40:04;98404.81;;;10.37;50.24
21902;BME280;11115;46.038;14.612;2023-04-04T10:42:46;98383.72;;;10.00;40.49
21902;BME280;11115;46.038;14.612;2023-04-04T10:45:18;98394.16;;;10.17;41.18
21902;BME280;11115;46.038;14.612;2023-04-04T10:47:54;98355.56;;;9.43;40.53
21902;BME280;11115;46.038;14.612;2023-04-04T10:50:29;98386.81;;;9.85;43.46
21902;BME280;11115;46.038;14.612;2023-04-04T10:52:59;98388.66;;;10.30;42.99
21902;BME280;11115;46.038;14.612;2023-04-04T10:55:45;98375.53;;;9.81;40.26
21902;BME280;11115;46.038;14.612;2023-04-04T10:58:21;98366.34;;;9.99;46.60
21902;BME280;11115;46.038;14.612;2023-04-04T11:01:13;98378.91;;;9.51;39.88
21902;BME280;11115;46.038;14.612;2023-04-04T11:04:16;98364.91;;;10.02;42.92
21902;BME280;11115;46.038;14.612;2023-04-04T11:07:10;98375.56;;;10.72;47.49
21902;BME280;11115;46.038;14.612;2023-04-04T11:09:55;98375.84;;;9.52;37.27
21902;BME280;11115;46.038;14.612;2023-04-04T11:12:30;98379.66;;;10.25;44.47
21902;BME280;11115;46.038;14.612;2023-04-04T11:15:09;98368.66;;;10.47;42.87
21902;BME280;11115;46.038;14.612;2023-04-04T11:17:57;98366.44;;;10.22;42.50
21902;BME280;11115;46.038;14.612;2023-04-04T11:20:53;98353.22;;;10.69;41.76
21902;BME280;11115;46.038;14.612;2023-04-04T11:29:06;98335.84;;;11.52;41.78
21902;BME280;11115;46.038;14.612;2023-04-04T11:31:44;98347.13;;;11.25;39.49
21902;BME280;11115;46.038;14.612;2023-04-04T11:34:14;98345.00;;;11.84;43.24
21902;BME280;11115;46.038;14.612;2023-04-04T11:37:14;98346.47;;;11.90;40.09
21902;BME280;11115;46.038;14.612;2023-04-04T11:39:49;98329.75;;;11.73;39.81
21902;BME280;11115;46.038;14.612;2023-04-04T11:42:33;98325.91;;;11.82;40.08
21902;BME280;11115;46.038;14.612;2023-04-04T11:45:18;98329.94;;;12.16;43.43
21902;BME280;11115;46.038;14.612;2023-04-04T11:47:54;98331.66;;;11.95;40.36
21902;BME280;11115;46.038;14.612;2023-04-04T11:50:25;98330.78;;;12.42;41.34
21902;BME280;11115;46.038;14.612;2023-04-04T11:52:56;98323.28;;;12.77;39.54
21902;BME280;11115;46.038;14.612;2023-04-04T11:55:28;98312.69;;;12.62;37.36
21902;BME280;11115;46.038;14.612;2023-04-04T11:58:09;98304.34;;;12.62;35.60
21902;BME280;11115;46.038;14.612;2023-04-04T12:00:41;98304.03;;;12.64;35.08
21902;BME280;11115;46.038;14.612;2023-04-04T12:03:19;98303.34;;;12.24;33.65
21902;BME280;11115;46.038;14.612;2023-04-04T12:05:56;98306.47;;;12.39;38.86
21902;BME280;11115;46.038;14.612;2023-04-04T12:08:29;98310.81;;;12.06;34.01
21902;BME280;11115;46.038;14.612;2023-04-04T12:11:06;98304.44;;;11.97;34.61
21902;BME280;11115;46.038;14.612;2023-04-04T12:13:42;98293.06;;;12.85;34.16
21902;BME280;11115;46.038;14.612;2023-04-04T12:16:13;98286.72;;;12.24;36.08
21902;BME280;11115;46.038;14.612;2023-04-04T12:18:44;98294.47;;;14.31;37.52
21902;BME280;11115;46.038;14.612;2023-04-04T12:21:19;98273.06;;;14.23;35.58
21902;BME280;11115;46.038;14.612;2023-04-04T12:23:55;98287.50;;;13.95;35.14
21902;BME280;11115;46.038;14.612;2023-04-04T12:26:31;98283.88;;;13.10;30.49
21902;BME280;11115;46.038;14.612;2023-04-04T12:29:02;98270.09;;;13.78;37.32
21902;BME280;11115;46.038;14.612;2023-04-04T12:31:37;98284.81;;;13.78;32.29
21902;BME280;11115;46.038;14.612;2023-04-04T12:34:24;98266.03;;;13.66;34.24
21902;BME280;11115;46.038;14.612;2023-04-04T12:37:02;98233.66;;;14.21;35.73
21902;BME280;11115;46.038;14.612;2023-04-04T12:39:39;98275.13;;;13.84;34.09
21902;BME280;11115;46.038;14.612;2023-04-04T12:42:20;98275.09;;;15.42;32.34
21902;BME280;11115;46.038;14.612;2023-04-04T12:45:00;98275.97;;;16.81;27.18
21902;BME280;11115;46.038;14.612;2023-04-04T12:47:33;98253.50;;;17.80;31.15
21902;BME280;11115;46.038;14.612;2023-04-04T12:50:26;98270.75;;;16.79;29.73
21902;BME280;11115;46.038;14.612;2023-04-04T12:52:58;98278.31;;;15.20;31.99
21902;BME280;11115;46.038;14.612;2023-04-04T12:55:54;98270.22;;;15.39;27.23
21902;BME280;11115;46.038;14.612;2023-04-04T12:58:26;98268.50;;;14.69;26.50
21902;BME280;11115;46.038;14.612;2023-04-04T13:01:02;98262.06;;;14.56;30.34
21902;BME280;11115;46.038;14.612;2023-04-04T13:03:36;98264.59;;;14.82;34.88
21902;BME280;11115;46.038;14.612;2023-04-04T13:06:15;98264.59;;;15.15;31.08
21902;BME280;11115;46.038;14.612;2023-04-04T13:08:54;98246.25;;;15.84;30.20
21902;BME280;11115;46.038;14.612;2023-04-04T13:11:25;98259.59;;;15.08;29.98
21902;BME280;11115;46.038;14.612;2023-04-04T13:14:01;98253.44;;;14.70;29.76
21902;BME280;11115;46.038;14.612;2023-04-04T13:16:44;98242.06;;;15.90;30.87
21902;BME280;11115;46.038;14.612;2023-04-04T13:19:18;98236.44;;;17.70;30.78
21902;BME280;11115;46.038;14.612;2023-04-04T13:21:51;98249.28;;;18.95;29.93
21902;BME280;11115;46.038;14.612;2023-04-04T13:24:21;98233.59;;;19.79;25.35
21902;BME280;11115;46.038;14.612;2023-04-04T13:27:07;98232.56;;;20.70;25.62
21902;BME280;11115;46.038;14.612;2023-04-04T13:29:41;98230.59;;;17.75;27.67
21902;BME280;11115;46.038;14.612;2023-04-04T13:32:13;98233.44;;;17.47;26.05
21902;BME280;11115;46.038;14.612;2023-04-04T13:34:48;98228.63;;;17.00;29.70
21902;BME280;11115;46.038;14.612;2023-04-04T13:37:16;98236.53;;;16.30;28.80
21902;BME280;11115;46.038;14.612;2023-04-04T13:39:47;98236.56;;;16.98;28.41
21902;BME280;11115;46.038;14.612;2023-04-04T13:42:31;98236.69;;;17.49;28.00
21902;BME280;11115;46.038;14.612;2023-04-04T13:45:02;98234.84;;;19.35;24.96
21902;BME280;11115;46.038;14.612;2023-04-04T13:47:32;98233.06;;;21.97;25.70
21902;BME280;11115;46.038;14.612;2023-04-04T13:50:07;98228.78;;;20.88;24.08
21902;BME280;11115;46.038;14.612;2023-04-04T13:52:51;98236.75;;;22.60;25.90
21902;BME280;11115;46.038;14.612;2023-04-04T13:55:26;98224.94;;;20.70;25.45